Nearby METAR Reports

 

KAVP - Avoca/Wilkes B., Pennsylvania, USA
Distance from station: N 16mi, 25km
Updated: 12/07/2022 2:24am
Mist, Overcast
Mist, Overcast
 Wind from calm
Wind: Calm
Temperature: 52°F , 11°C
Dew Point: 50°F , 10°C
Humidity: 94%
Barometer: 30.15 inHg , 1021 hPa
Summary: Mist
Clouds: Overcast
Visibility: 2 miles , 3 km
Cloud details: Overcast 1500 ft
2022/12/07 07:24 KAVP 070724Z 00000KT 2SM BR OVC015 11/10 A3015 RMK AO2 T01060100
KMPO - Mt. Pocono, Pennsylvania, USA
Distance from station: E 20mi, 33km
Updated: 12/07/2022 2:04am
Light rain, Mist, Overcast
Light rain, Mist, Overcast
 Wind from SW
Wind: SW 7 mph , 11 km/h
Temperature: 48°F , 9°C
Wind Chill: 45°F , 7°C
Dew Point: 48°F , 9°C
Humidity: 100%
Barometer: 30.16 inHg , 1021.3 hPa
Summary: Light rain, Mist
Clouds: Overcast
Visibility: 4 miles , 6 km
Cloud details: Overcast 500 ft
2022/12/07 07:04 KMPO 070704Z AUTO 22006KT 4SM -RA BR OVC005 09/09 A3016 RMK AO2 CIG 003V008 P0002 T00890089
 
KABE - Allentown, Pennsylvania, USA
Distance from station: SSE 36mi, 58km
Updated: 12/07/2022 2:21am
Light rain, Mist, Overcast
Light rain, Mist, Overcast
 Wind from WSW
Wind: WSW 5 mph , 7 km/h
Temperature: 52°F , 11°C
Dew Point: 52°F , 11°C
Humidity: 100%
Barometer: 30.19 inHg , 1022.4 hPa
Summary: Light rain, Mist
Clouds: Overcast
Visibility: 2 1/2 miles , 4 km
Cloud details: Partly cloudy 500 ft
Overcast 1000 ft
2022/12/07 07:21 KABE 070721Z 24004KT 2 1/2SM -RA BR SCT005 OVC010 11/11 A3019 RMK AO2 P0001 T01110106
KXLL - Allentown Queen, Pennsylvania, USA
Distance from station: SSE 41mi, 65km
Updated: 12/07/2022 2:15am
Rain, Overcast
Rain, Overcast
 Wind from SSW
Wind: SSW 3 mph , 6 km/h
Temperature: 52°F , 11°C
Dew Point: 52°F , 11°C
Humidity: 100%
Barometer: 30.20 inHg , 1022.7 hPa
Summary: Rain
Clouds: Overcast
Visibility: 5 miles , 8 km
Cloud details: Mostly cloudy 800 ft
Overcast 1300 ft
2022/12/07 07:15 KXLL 070715Z AUTO 20003KT 5SM RA BKN008 OVC013 11/11 A3020 RMK AO2